Vue régionale

METAR et TAF

Mardi 13 avril 2021 à 06h25

Visibilités horizontales observées à différents aéroports. Les observations (METAR) et prévisions aéronautiques (TAF) complètes sont disponibles en cliquant sur l’icône correspondante.

  • Luxemburg (ELLX)

    Taf: TAF ELLX 122300Z 1300/1406 02008KT 9999 SCT035 TEMPO 1310/1316 FEW025TCU BKN030 PROB30 TEMPO 1403/1406 1500 MIFG=

    Metar: METAR ELLX 122350Z 36006KT CAVOK 01/M01 Q1029 NOSIG=

  • Spangdahlem (ETAD)

    Taf: TAF ETAD 130400Z 1304/1410 VRB04KT 9999 SKC QNH3040INS BECMG 1308/1309 02008KT 9999 BKN030 620401 QNH3038INS BECMG 1313/1314 02007KT 9999 FEW050 QNH3038INS BECMG 1319/1320 36006KT 9999 SCT040 QNH3037INS TX08/1315Z TNM03/1305Z=

    Metar: METAR ETAD 130356Z AUTO 00000KT 9999 CLR M02/M03 A3040 RMK AO2 SLP303 T10231029=

  • Metz/Nancy (LFJL)

    Taf: TAF LFJL 122300Z 1300/1324 35005KT 9999 BKN040 PROB40 TEMPO 1300/1307 3000 -SHRASN BKN008 FEW015TCU BKN020 BECMG 1317/1319 CAVOK=

    Metar: METAR LFJL 130400Z AUTO 02005KT 6000 BKN038 OVC082 01/M00 Q1029 TEMPO 3000 -SHRASN BKN008 FEW015TCU BKN020=

  • Saarbrücken/Intl (EDDR)

    Taf: TAF EDDR 122300Z 1300/1324 03004KT 9999 SCT040 PROB30 TEMPO 1300/1303 4000 -SHSNRA BKN030CB BECMG 1306/1309 02009KT PROB30 TEMPO 1315/1318 SHSNRA BKN030CB BECMG 1316/1319 03004KT=

    Metar: METAR EDDR 130350Z 02004KT 9999 SCT035 00/M01 Q1029 NOSIG=

  • Hahn (EDFH)

    Taf: TAF EDFH 122300Z 1300/1324 33004KT 9999 SCT025 PROB30 TEMPO 1303/1306 BKN012 BECMG 1307/1310 01009KT TEMPO 1315/1318 4000 SHSN BKN020CB BECMG 1318/1321 01004KT=

    Metar: METAR EDFH 130350Z 04003KT CAVOK M02/M03 Q1029=

  • Ramstein (ETAR)

    Taf: TAF ETAR 130200Z 1302/1408 VRB06KT 9999 SCT060 QNH3039INS TEMPO 1302/1306 9999 -RASN BECMG 1309/1310 03012KT 9999 SCT040 QNH3044INS BECMG 1317/1318 03006KT 9999 SCT040 QNH3038INS TX10/1314Z TN00/1304Z=

    Metar: nil

  • Nancy/Ochey (LFSO)

    Taf: TAF LFSO 130200Z NIL=

    Metar: METAR LFSO 130400Z AUTO VRB02KT 7000 SCT033 OVC039 02/01 Q1029=

  • Liège Bierset (EBLG)

    Taf: TAF EBLG 122310Z 1300/1406 24003KT 9999 FEW030=

    Metar: METAR EBLG 122350Z 27003KT CAVOK M00/M02 Q1031 NOSIG=

  • Saint-Dizier (LFSI)

    Taf: TAF LFSI 130200Z 1303/1403 VRB02KT 9999 BKN030 PROB40 TEMPO 1303/1306 4000 BR=

    Metar: METAR LFSI 130400Z AUTO 03003KT 9999 SCT034/// BKN056/// OVC082/// ///TCU 03/02 Q1030=

  • Maastricht/Zuid Limburg (EHBK)

    Taf: TAF AMD EHBK 130323Z 1303/1406 23004KT 5000 BR MIFG FEW040 BECMG 1305/1307 CAVOK PROB30 TEMPO 1314/1320 33010KT 7000 -SHRA FEW020TCU BKN030=

    Metar: METAR EHBK 130355Z AUTO 21005KT 5000 NCD M01/M02 Q1031=

  • Köln/Köln-Bonn (EDDK)

    Taf: TAF EDDK 122300Z 1300/1406 VRB03KT CAVOK TEMPO 1301/1308 4000 BR PROB30 TEMPO 1302/1306 1200 BCFG BECMG 1307/1310 32009KT BECMG 1318/1321 VRB03KT=

    Metar: METAR EDDK 130350Z VRB01KT CAVOK M03/M04 Q1031 NOSIG=

  • Charleroi (EBCI)

    Taf: TAF EBCI 122310Z 1300/1406 28003KT 9999 FEW030=

    Metar: METAR EBCI 122350Z 33002KT CAVOK 00/M02 Q1031 NOSIG=

  • Wiesbaden (ETOU)

    Taf: TAF ETOU 130410Z 1304/1410 VRB06KT 9999 FEW030 QNH3044INS BECMG 1308/1309 35006KT 9999 BKN030 QNH3044INS BECMG 1312/1313 02008KT 9999 VCSH SCT035 QNH3044INS BECMG 1321/1322 33006KT 9999 NSW SCT045 QNH3042INS TX08/1314Z TNM02/1305Z=

    Metar: METAR ETOU 130356Z AUTO 00000KT 9999 CLR M01/M02 A3043 RMK AO2 SLP315 T10061022 $=

  • Karlsruhe/Baden-Baden (EDSB)

    Taf: TAF EDSB 122300Z 1300/1324 VRB03KT 9999 SCT035 BECMG 1306/1309 02010KT PROB30 TEMPO 1314/1318 SHSNRA BKN030CB BECMG 1317/1320 04004KT=

    Metar: METAR EDSB 130350Z 35003KT 300V010 9999 FEW045 SCT054 00/M01 Q1030=

  • Chalons/Vatry (LFOK)

    Taf: TAF LFOK 122300Z 1300/1324 35005KT 9999 SCT025 TEMPO 1300/1305 2000 BR BKN003 BECMG 1307/1309 05010KT=

    Metar: METAR LFOK 130400Z AUTO 02008KT 6000 FEW004 OVC070 02/01 Q1030 TEMPO 2000 BR BKN003=

  • Frankfurt/Main (EDDF)

    Taf: TAF EDDF 122300Z 1300/1406 31004KT 9999 SCT040 PROB30 TEMPO 1300/1306 4000 BR BECMG 1306/1309 01008KT PROB40 TEMPO 1315/1320 SHSNRA BKN040CB BECMG 1319/1321 03003KT=

    Metar: METAR EDDF 130350Z VRB02KT CAVOK M03/M04 Q1030 NOSIG=

  • Brüssel (EBBR)

    Taf: TAF EBBR 122310Z 1300/1406 25004KT 9999 FEW030=

    Metar: METAR EBBR 122350Z 27003KT 9999 FEW039 00/M03 Q1031 NOSIG=

  • Düsseldorf (EDDL)

    Taf: TAF EDDL 122300Z 1300/1406 VRB03KT CAVOK BECMG 1307/1310 31008KT BECMG 1318/1321 VRB02KT=

    Metar: METAR EDDL 130350Z 24002KT CAVOK M02/M02 Q1031 NOSIG=

  • Luxeuil (LFSX)

    Taf: TAF LFSX 130200Z NIL=

    Metar: METAR LFSX 130400Z AUTO 32004KT CAVOK 00/M01 Q1028=

  • Eindhoven (EHEH)

    Taf: TAF EHEH 122318Z 1300/1406 26003KT 9999 FEW030 BECMG 1308/1311 31007KT PROB40 TEMPO 1311/1317 32010G20KT 4500 -SHRA FEW015 SCT020CB BECMG 1319/1322 VRB02KT PROB30 1402/1406 3000 BR=

    Metar: METAR EHEH 130355Z AUTO 26004KT 9999 NCD M03/M03 Q1031 BLU=

  • Niederrhein (EDLV)

    Taf: TAF EDLV 122300Z NIL=

    Metar: METAR EDLV 130350Z NIL=

  • Dortmund/Wickede (EDLW)

    Taf: TAF EDLW 130320Z 1304/1324 24006KT 9999 SCT040 BECMG 1307/1310 31007KT TEMPO 1311/1318 SHRAGS BKN030TCU BECMG 1317/1320 VRB03KT=

    Metar: METAR EDLW 130350Z 22006KT 9999 FEW031 BKN047 00/M01 Q1030=

  • Stuttgart/Echterdingen (EDDS)

    Taf: TAF EDDS 122300Z 1300/1324 28004KT 9999 SCT030 PROB30 TEMPO 1303/1306 BKN012 BECMG 1308/1311 36009KT PROB30 TEMPO 1314/1318 SHSNRA BKN030CB BECMG 1317/1320 30004KT=

    Metar: METAR EDDS 130350Z VRB01KT CAVOK M01/M02 Q1028=

  • Basel-Mühlhausen (LFSB)

    Taf: TAF LFSB 122300Z 1300/1324 VRB03KT CAVOK BECMG 1308/1310 36008KT FEW030TCU SCT050 PROB40 TEMPO 1311/1320 -SHRA PROB40 TEMPO 1311/1318 06010KT BECMG 1319/1321 VRB04KT CAVOK=

    Metar: METAR LFSB 130400Z AUTO VRB01KT CAVOK M00/M01 Q1028 NOSIG=

  • Lille (LFQQ)

    Taf: TAF LFQQ 122300Z 1300/1406 VRB03KT CAVOK TEMPO 1315/1318 36010KT=

    Metar: METAR LFQQ 130400Z AUTO 27003KT 8000 NSC M02/M03 Q1032 NOSIG=

  • Paris/Charles de Gaulle (LFPG)

    Taf: TAF LFPG 122300Z 1300/1406 02005KT CAVOK TX11/1315Z TN00/1305Z PROB40 TEMPO 1300/1305 4000 BR PROB30 TEMPO 1301/1303 0800 BCFG BKN002=

    Metar: METAR LFPG 130400Z 01006KT 6000 NSC 01/M00 Q1031 NOSIG=

  • Paderborn/Lippstadt (EDLP)

    Taf: TAF EDLP 122300Z NIL=

    Metar: METAR EDLP NIL=

  • Paris/Le Bourget (LFPB)

    Taf: TAF LFPB 122300Z 1300/1324 02005KT CAVOK PROB40 TEMPO 1300/1305 4000 BR PROB30 TEMPO 1301/1303 0800 BCFG BKN004=

    Metar: METAR LFPB 130400Z AUTO 36004KT 6000 NSC 01/01 Q1032 TEMPO 4000 BR=

  • Rotterdam (EHRD)

    Taf: TAF EHRD 122250Z 1300/1406 29008KT 9999 FEW030=

    Metar: METAR EHRD 130355Z AUTO 26004KT 9999 FEW032 M01/M03 Q1031 NOSIG=

  • Zürich/Kloten (LSZH)

    Taf: TAF AMD LSZH 130329Z 1303/1409 VRB02KT 0700 PRFG VV003 TX07/1315Z TNM02/1305Z TNM03/1405Z BECMG 1303/1305 0500 BECMG 1306/1308 1500 BR BKN003 BECMG 1308/1310 04007KT 9999 NSW BECMG 1316/1319 VRB02KT BECMG 1319/1321 CAVOK BECMG 1407/1409 04009KT=

    Metar: METAR LSZH 130350Z 31003KT 0550 R14/0800U R16/0600D R28/1300U R34/0800U PRFG FEW001 M03/M03 Q1028 TEMPO 0300 TEMPO 3000=

  • Oostende/Intl (EBOS)

    Taf: TAF EBOS 122310Z 1300/1406 26003KT 9999 FEW030 BECMG 1400/1403 01010KT=

    Metar: METAR EBOS 122350Z 22003KT 9999 FEW025 M01/M03 Q1032 NOSIG=

  • Paris/Orly (LFPO)

    Taf: TAF AMD LFPO 130111Z 1301/1406 36005KT CAVOK TEMPO 1301/1304 BKN012 PROB30 TEMPO 1305/1307 4000 BR BECMG 1307/1309 05010KT=

    Metar: METAR LFPO 130400Z 01005KT 7000 FEW012 02/01 Q1031 NOSIG=

  • Beauvais (LFOB)

    Taf: TAF LFOB 122300Z 1300/1324 VRB04KT CAVOK TEMPO 1300/1303 3000 BR BECMG 1309/1313 04010KT=

    Metar: METAR LFOB 130400Z AUTO 35007KT 7000 NSC M04/M05 Q1032 NOSIG=

  • Münster/Intl (EDDG)

    Taf: TAF EDDG 122300Z 1300/1324 25005KT CAVOK BECMG 1307/1310 28010KT PROB30 TEMPO 1311/1318 SHRAGS BKN035TCU BECMG 1317/1320 VRB03KT=

    Metar: METAR EDDG 130350Z 25004KT 9999 FEW020 M00/M01 Q1030 NOSIG=

  • Illesheim (ETIK)

    Taf: TAF ETIK 122200Z 1222/1404 VRB06KT 9999 SCT030 QNH3035INS BECMG 1310/1311 34010G15KT 9999 BKN050 QNH3036INS BECMG 1317/1318 VRB06KT 9999 SCT030 QNH3036INS TX08/1314Z TNM02/1305Z LAST NO AMDS AFT 1222 NEXT 1306=

    Metar: METAR ETIK 130356Z AUTO 23003KT 9999 CLR M02/M04 A3038 RMK AO2 SLP306 T10241040 $=

  • Duebendorf (LSMD)

    Taf: TAF LSMD 121625Z 1217/1323 08004KT 9999 FEW025 BKN055 TEMPO 1222/1305 3000 MIFG PROB30 TEMPO 1312/1316 SHRA=

    Metar: METAR LSMD 130350Z AUTO 00000KT 9999NDV NCD M01/M02 Q1028 RMK=

  • Villacoublay (LFPV)

    Taf: TAF AMD LFPV 130404Z 1304/1403 02004KT 6000 FEW012 TX10/1314Z TN02/1306Z TEMPO 1304/1306 4000 BR=

    Metar: METAR LFPV 130400Z AUTO 01006KT 340V040 5000 BR FEW012 02/01 Q1031 NOSIG=

  • Payerne (LSMP)

    Taf: TAF LSMP 121625Z 1217/1323 04005KT 9999 SCT050=

    Metar: METAR LSMP 130350Z AUTO VRB02KT 9999NDV BKN093 M02/M03 Q1028 RMK=

  • Amsterdam/Schipol (EHAM)

    Taf: TAF EHAM 122249Z 1300/1406 29009KT 9999 FEW030=

    Metar: METAR EHAM 130355Z 26005KT 9999 FEW028 02/M01 Q1031 NOSIG=

  • Emmen (LSME)

    Taf: TAF LSME 121625Z 1217/1323 VRB03KT 9999 -RA FEW011 SCT040 OVC050 TEMPO 1301/1305 4000 BR PROB30 TEMPO 1313/1318 SHRA=

    Metar: METAR LSME 130350Z AUTO 00000KT 5000NDV BR FEW002 M01/M01 Q1028 RMK=

  • Friedrichshafen (EDNY)

    Taf: TAF EDNY 122300Z 1300/1324 VRB03KT 9999 FEW045 BKN060 TEMPO 1302/1306 4000 BR BECMG 1309/1311 23005KT BECMG 1315/1317 VRB03KT=

    Metar: METAR EDNY 130350Z AUTO 00000KT 1400 0750 R24/1900D // NCD M01/M01 Q1028=

  • Alpnach (LSMA)

    Taf: TAF LSMA 121625Z 1217/1323 04007KT 9999 -RA FEW018 BKN025 OVC055 TEMPO 1301/1306 4000 BR PROB30 TEMPO 1313/1318 SHRA=

    Metar: METAR LSMA 130350Z AUTO 00000KT 8000NDV FEW014 M01/M01 Q1028 RMK=

  • Meiringen (LSMM)

    Taf: TAF LSMM 121625Z 1217/1323 34006KT 9999 -RA FEW018 SCT045 BKN060 TEMPO 1302/1305 4000 BR PROB30 TEMPO 1312/1318 SHRA=

    Metar: METAR LSMM 130350Z AUTO 00000KT 9999NDV SCT042 00/M00 Q1027 RMK=

  • Nürnberg (EDDN)

    Taf: TAF EDDN 122300Z 1300/1324 VRB03KT CAVOK TEMPO 1307/1308 BKN012 BECMG 1307/1309 32008KT BECMG 1317/1319 VRB03KT=

    Metar: METAR EDDN 130350Z 34003KT CAVOK M01/M02 Q1028=

  • Rouen (LFOP)

    Taf: TAF LFOP 122300Z NIL=

    Metar: METAR LFOP 130400Z AUTO 03004KT 8000 NSC 00/M01 Q1032=

  • Evreux (LFOE)

    Taf: TAF LFOE 130200Z 1303/1403 VRB02KT 4000 BR NSC BECMG 1305/1307 07008KT CAVOK=

    Metar: METAR LFOE 130400Z AUTO 35003KT 260V070 5000 BR NSC M02/M03 Q1032 NOSIG=

  • Erfurt/Bindersleben (EDDE)

    Taf: TAF EDDE 122300Z 1300/1324 25007KT CAVOK BECMG 1306/1308 31007KT=

    Metar: METAR EDDE 130350Z 25008KT 7000 NSC M02/M03 Q1028 NOSIG=